sensor_id;sensor_type;location;lat;lon;timestamp;P1;durP1;ratioP1;P2;durP2;ratioP2
21527;SDS011;10925;49.102;-0.370;2022-12-17T00:01:21;112.80;;;49.78;;
21527;SDS011;10925;49.102;-0.370;2022-12-17T00:04:05;109.32;;;47.35;;
21527;SDS011;10925;49.102;-0.370;2022-12-17T00:06:50;104.15;;;44.38;;
21527;SDS011;10925;49.102;-0.370;2022-12-17T00:09:36;78.35;;;36.55;;
21527;SDS011;10925;49.102;-0.370;2022-12-17T00:12:21;70.40;;;35.00;;
21527;SDS011;10925;49.102;-0.370;2022-12-17T00:15:05;65.93;;;31.58;;
21527;SDS011;10925;49.102;-0.370;2022-12-17T00:17:49;71.57;;;33.15;;
21527;SDS011;10925;49.102;-0.370;2022-12-17T00:20:35;67.27;;;30.37;;
21527;SDS011;10925;49.102;-0.370;2022-12-17T00:23:21;62.05;;;28.58;;
21527;SDS011;10925;49.102;-0.370;2022-12-17T00:26:05;58.38;;;27.83;;
21527;SDS011;10925;49.102;-0.370;2022-12-17T00:28:49;52.30;;;26.58;;
21527;SDS011;10925;49.102;-0.370;2022-12-17T00:31:34;52.30;;;25.58;;
21527;SDS011;10925;49.102;-0.370;2022-12-17T00:34:21;49.47;;;24.55;;
21527;SDS011;10925;49.102;-0.370;2022-12-17T00:37:06;43.72;;;23.15;;
21527;SDS011;10925;49.102;-0.370;2022-12-17T00:39:52;45.25;;;22.27;;
21527;SDS011;10925;49.102;-0.370;2022-12-17T00:42:37;48.45;;;22.05;;
21527;SDS011;10925;49.102;-0.370;2022-12-17T00:45:22;52.37;;;24.17;;
21527;SDS011;10925;49.102;-0.370;2022-12-17T00:48:08;53.88;;;24.17;;
21527;SDS011;10925;49.102;-0.370;2022-12-17T00:50:53;50.50;;;23.70;;
21527;SDS011;10925;49.102;-0.370;2022-12-17T00:53:38;55.42;;;24.38;;
21527;SDS011;10925;49.102;-0.370;2022-12-17T00:56:23;52.13;;;25.17;;
21527;SDS011;10925;49.102;-0.370;2022-12-17T00:59:10;50.05;;;23.80;;
21527;SDS011;10925;49.102;-0.370;2022-12-17T01:01:55;54.40;;;26.92;;
21527;SDS011;10925;49.102;-0.370;2022-12-17T01:04:40;46.30;;;24.85;;
21527;SDS011;10925;49.102;-0.370;2022-12-17T01:07:26;42.40;;;22.42;;
21527;SDS011;10925;49.102;-0.370;2022-12-17T01:10:10;43.97;;;23.05;;
21527;SDS011;10925;49.102;-0.370;2022-12-17T01:12:54;45.67;;;23.17;;
21527;SDS011;10925;49.102;-0.370;2022-12-17T01:15:39;45.50;;;23.85;;
21527;SDS011;10925;49.102;-0.370;2022-12-17T01:18:24;49.58;;;22.90;;
21527;SDS011;10925;49.102;-0.370;2022-12-17T01:21:10;50.47;;;25.42;;
21527;SDS011;10925;49.102;-0.370;2022-12-17T01:23:55;55.35;;;25.70;;
21527;SDS011;10925;49.102;-0.370;2022-12-17T01:26:39;59.60;;;28.92;;
21527;SDS011;10925;49.102;-0.370;2022-12-17T01:29:24;58.08;;;28.83;;
21527;SDS011;10925;49.102;-0.370;2022-12-17T01:32:08;63.53;;;28.45;;
21527;SDS011;10925;49.102;-0.370;2022-12-17T01:34:53;55.27;;;27.40;;
21527;SDS011;10925;49.102;-0.370;2022-12-17T01:37:38;57.72;;;25.52;;
21527;SDS011;10925;49.102;-0.370;2022-12-17T01:40:24;53.08;;;25.25;;
21527;SDS011;10925;49.102;-0.370;2022-12-17T01:43:12;43.65;;;22.92;;
21527;SDS011;10925;49.102;-0.370;2022-12-17T01:45:57;46.72;;;23.13;;
21527;SDS011;10925;49.102;-0.370;2022-12-17T01:48:43;43.55;;;21.17;;
21527;SDS011;10925;49.102;-0.370;2022-12-17T01:51:31;47.95;;;21.38;;
21527;SDS011;10925;49.102;-0.370;2022-12-17T01:54:15;46.60;;;21.67;;
21527;SDS011;10925;49.102;-0.370;2022-12-17T01:57:01;50.97;;;22.48;;
21527;SDS011;10925;49.102;-0.370;2022-12-17T01:59:59;49.08;;;23.23;;
21527;SDS011;10925;49.102;-0.370;2022-12-17T02:02:45;51.28;;;24.27;;
21527;SDS011;10925;49.102;-0.370;2022-12-17T02:06:03;44.50;;;23.60;;
21527;SDS011;10925;49.102;-0.370;2022-12-17T02:14:45;49.55;;;22.52;;
21527;SDS011;10925;49.102;-0.370;2022-12-17T02:17:35;42.30;;;19.73;;
21527;SDS011;10925;49.102;-0.370;2022-12-17T02:23:12;42.83;;;17.88;;
21527;SDS011;10925;49.102;-0.370;2022-12-17T02:26:03;44.90;;;18.05;;
21527;SDS011;10925;49.102;-0.370;2022-12-17T02:28:49;45.05;;;18.90;;
21527;SDS011;10925;49.102;-0.370;2022-12-17T02:31:35;52.63;;;20.65;;
21527;SDS011;10925;49.102;-0.370;2022-12-17T02:34:22;45.78;;;20.25;;
21527;SDS011;10925;49.102;-0.370;2022-12-17T02:37:07;41.30;;;19.55;;
21527;SDS011;10925;49.102;-0.370;2022-12-17T02:39:51;43.25;;;19.98;;
21527;SDS011;10925;49.102;-0.370;2022-12-17T02:42:37;46.35;;;20.23;;
21527;SDS011;10925;49.102;-0.370;2022-12-17T02:45:22;49.33;;;20.77;;
21527;SDS011;10925;49.102;-0.370;2022-12-17T02:48:08;40.43;;;19.83;;
21527;SDS011;10925;49.102;-0.370;2022-12-17T02:50:52;48.83;;;20.00;;
21527;SDS011;10925;49.102;-0.370;2022-12-17T02:53:41;42.83;;;20.93;;
21527;SDS011;10925;49.102;-0.370;2022-12-17T02:56:28;47.20;;;20.30;;
21527;SDS011;10925;49.102;-0.370;2022-12-17T02:59:13;43.43;;;20.70;;
21527;SDS011;10925;49.102;-0.370;2022-12-17T03:01:57;50.65;;;22.17;;
21527;SDS011;10925;49.102;-0.370;2022-12-17T03:04:44;49.78;;;22.63;;
21527;SDS011;10925;49.102;-0.370;2022-12-17T03:07:28;49.50;;;22.98;;
21527;SDS011;10925;49.102;-0.370;2022-12-17T03:10:13;55.28;;;25.55;;
21527;SDS011;10925;49.102;-0.370;2022-12-17T03:12:59;56.15;;;26.50;;
21527;SDS011;10925;49.102;-0.370;2022-12-17T03:15:44;69.47;;;30.00;;
21527;SDS011;10925;49.102;-0.370;2022-12-17T03:18:28;78.50;;;31.60;;
21527;SDS011;10925;49.102;-0.370;2022-12-17T03:21:12;71.22;;;29.80;;
21527;SDS011;10925;49.102;-0.370;2022-12-17T03:23:57;71.30;;;28.83;;
21527;SDS011;10925;49.102;-0.370;2022-12-17T03:26:42;56.85;;;24.77;;
21527;SDS011;10925;49.102;-0.370;2022-12-17T03:29:27;42.60;;;20.38;;
21527;SDS011;10925;49.102;-0.370;2022-12-17T03:32:14;36.38;;;18.73;;
21527;SDS011;10925;49.102;-0.370;2022-12-17T03:34:58;37.13;;;17.42;;
21527;SDS011;10925;49.102;-0.370;2022-12-17T03:37:43;38.85;;;18.55;;
21527;SDS011;10925;49.102;-0.370;2022-12-17T03:40:29;37.78;;;17.52;;
21527;SDS011;10925;49.102;-0.370;2022-12-17T03:43:14;40.05;;;17.95;;
21527;SDS011;10925;49.102;-0.370;2022-12-17T03:45:58;39.03;;;18.13;;
21527;SDS011;10925;49.102;-0.370;2022-12-17T03:48:43;37.58;;;18.55;;
21527;SDS011;10925;49.102;-0.370;2022-12-17T03:51:27;39.28;;;17.77;;
21527;SDS011;10925;49.102;-0.370;2022-12-17T03:54:12;46.38;;;18.52;;
21527;SDS011;10925;49.102;-0.370;2022-12-17T03:56:57;47.95;;;18.63;;
21527;SDS011;10925;49.102;-0.370;2022-12-17T03:59:42;37.50;;;18.33;;
21527;SDS011;10925;49.102;-0.370;2022-12-17T04:02:26;36.67;;;16.95;;
21527;SDS011;10925;49.102;-0.370;2022-12-17T04:05:12;39.33;;;17.65;;
21527;SDS011;10925;49.102;-0.370;2022-12-17T04:07:57;36.30;;;16.58;;
21527;SDS011;10925;49.102;-0.370;2022-12-17T04:10:42;33.80;;;15.77;;
21527;SDS011;10925;49.102;-0.370;2022-12-17T04:13:27;30.60;;;17.02;;
21527;SDS011;10925;49.102;-0.370;2022-12-17T04:16:13;32.65;;;16.63;;
21527;SDS011;10925;49.102;-0.370;2022-12-17T04:18:58;32.88;;;16.58;;
21527;SDS011;10925;49.102;-0.370;2022-12-17T04:21:42;41.33;;;16.63;;
21527;SDS011;10925;49.102;-0.370;2022-12-17T04:24:27;30.50;;;16.67;;
21527;SDS011;10925;49.102;-0.370;2022-12-17T04:27:11;41.80;;;17.75;;
21527;SDS011;10925;49.102;-0.370;2022-12-17T04:29:56;38.20;;;17.05;;
21527;SDS011;10925;49.102;-0.370;2022-12-17T04:32:41;39.53;;;18.02;;
21527;SDS011;10925;49.102;-0.370;2022-12-17T04:35:26;40.75;;;17.50;;
21527;SDS011;10925;49.102;-0.370;2022-12-17T04:38:12;36.33;;;17.63;;
21527;SDS011;10925;49.102;-0.370;2022-12-17T04:40:57;41.10;;;18.08;;
21527;SDS011;10925;49.102;-0.370;2022-12-17T04:43:41;35.85;;;17.92;;
21527;SDS011;10925;49.102;-0.370;2022-12-17T04:46:06;44.90;;;19.10;;
21527;SDS011;10925;49.102;-0.370;2022-12-17T04:48:32;37.53;;;18.33;;
21527;SDS011;10925;49.102;-0.370;2022-12-17T04:50:57;45.30;;;21.70;;
21527;SDS011;10925;49.102;-0.370;2022-12-17T04:53:42;43.57;;;20.23;;
21527;SDS011;10925;49.102;-0.370;2022-12-17T04:56:28;39.35;;;18.15;;
21527;SDS011;10925;49.102;-0.370;2022-12-17T04:59:12;35.10;;;16.67;;
21527;SDS011;10925;49.102;-0.370;2022-12-17T05:01:57;40.10;;;16.80;;
21527;SDS011;10925;49.102;-0.370;2022-12-17T05:04:42;42.80;;;16.47;;
21527;SDS011;10925;49.102;-0.370;2022-12-17T05:07:28;37.63;;;16.67;;
21527;SDS011;10925;49.102;-0.370;2022-12-17T05:10:13;41.45;;;17.55;;
21527;SDS011;10925;49.102;-0.370;2022-12-17T05:12:58;37.60;;;16.33;;
21527;SDS011;10925;49.102;-0.370;2022-12-17T05:15:44;44.38;;;17.88;;
21527;SDS011;10925;49.102;-0.370;2022-12-17T05:18:29;40.60;;;17.58;;
21527;SDS011;10925;49.102;-0.370;2022-12-17T05:21:12;38.70;;;17.27;;
21527;SDS011;10925;49.102;-0.370;2022-12-17T05:23:59;35.10;;;17.02;;
21527;SDS011;10925;49.102;-0.370;2022-12-17T05:26:42;36.38;;;16.73;;
21527;SDS011;10925;49.102;-0.370;2022-12-17T05:29:28;37.28;;;16.38;;
21527;SDS011;10925;49.102;-0.370;2022-12-17T05:32:13;41.63;;;17.35;;
21527;SDS011;10925;49.102;-0.370;2022-12-17T05:34:58;33.05;;;16.20;;
21527;SDS011;10925;49.102;-0.370;2022-12-17T05:37:42;40.63;;;19.20;;
21527;SDS011;10925;49.102;-0.370;2022-12-17T05:40:27;80.47;;;28.23;;
21527;SDS011;10925;49.102;-0.370;2022-12-17T05:43:12;76.20;;;29.05;;
21527;SDS011;10925;49.102;-0.370;2022-12-17T05:46:11;84.97;;;29.08;;
21527;SDS011;10925;49.102;-0.370;2022-12-17T05:48:55;61.63;;;25.83;;
21527;SDS011;10925;49.102;-0.370;2022-12-17T05:51:40;56.45;;;23.73;;
21527;SDS011;10925;49.102;-0.370;2022-12-17T05:54:26;46.75;;;22.25;;
21527;SDS011;10925;49.102;-0.370;2022-12-17T05:57:11;47.40;;;20.70;;
21527;SDS011;10925;49.102;-0.370;2022-12-17T05:59:56;39.35;;;19.83;;
21527;SDS011;10925;49.102;-0.370;2022-12-17T06:02:41;42.70;;;20.52;;
21527;SDS011;10925;49.102;-0.370;2022-12-17T06:05:26;35.13;;;17.05;;
21527;SDS011;10925;49.102;-0.370;2022-12-17T06:08:12;39.13;;;17.83;;
21527;SDS011;10925;49.102;-0.370;2022-12-17T06:10:58;32.83;;;15.93;;
21527;SDS011;10925;49.102;-0.370;2022-12-17T06:13:43;35.45;;;16.38;;
21527;SDS011;10925;49.102;-0.370;2022-12-17T06:16:27;41.97;;;16.40;;
21527;SDS011;10925;49.102;-0.370;2022-12-17T06:19:12;33.10;;;15.60;;
21527;SDS011;10925;49.102;-0.370;2022-12-17T06:21:56;33.65;;;15.30;;
21527;SDS011;10925;49.102;-0.370;2022-12-17T06:24:41;31.15;;;16.02;;
21527;SDS011;10925;49.102;-0.370;2022-12-17T06:27:38;33.55;;;16.00;;
21527;SDS011;10925;49.102;-0.370;2022-12-17T06:30:23;31.90;;;14.93;;
21527;SDS011;10925;49.102;-0.370;2022-12-17T06:33:09;39.20;;;17.17;;
21527;SDS011;10925;49.102;-0.370;2022-12-17T06:35:55;75.38;;;29.15;;
21527;SDS011;10925;49.102;-0.370;2022-12-17T06:38:48;83.97;;;30.10;;
21527;SDS011;10925;49.102;-0.370;2022-12-17T06:41:33;65.88;;;27.40;;
21527;SDS011;10925;49.102;-0.370;2022-12-17T06:44:25;44.63;;;21.27;;
21527;SDS011;10925;49.102;-0.370;2022-12-17T06:47:10;45.70;;;20.50;;
21527;SDS011;10925;49.102;-0.370;2022-12-17T06:49:56;41.03;;;18.15;;
21527;SDS011;10925;49.102;-0.370;2022-12-17T06:52:41;40.97;;;18.10;;
21527;SDS011;10925;49.102;-0.370;2022-12-17T06:55:25;41.63;;;18.42;;
21527;SDS011;10925;49.102;-0.370;2022-12-17T06:58:09;45.28;;;20.58;;
21527;SDS011;10925;49.102;-0.370;2022-12-17T07:00:54;45.05;;;19.45;;
21527;SDS011;10925;49.102;-0.370;2022-12-17T07:03:40;48.42;;;20.83;;
21527;SDS011;10925;49.102;-0.370;2022-12-17T07:06:25;41.55;;;19.90;;
21527;SDS011;10925;49.102;-0.370;2022-12-17T07:09:10;39.90;;;17.92;;
21527;SDS011;10925;49.102;-0.370;2022-12-17T07:11:55;33.97;;;16.77;;
21527;SDS011;10925;49.102;-0.370;2022-12-17T07:14:39;38.53;;;17.55;;
21527;SDS011;10925;49.102;-0.370;2022-12-17T07:17:25;33.53;;;14.63;;
21527;SDS011;10925;49.102;-0.370;2022-12-17T07:20:09;41.42;;;17.42;;
21527;SDS011;10925;49.102;-0.370;2022-12-17T07:22:55;40.88;;;18.13;;
21527;SDS011;10925;49.102;-0.370;2022-12-17T07:25:40;36.97;;;16.27;;
21527;SDS011;10925;49.102;-0.370;2022-12-17T07:28:25;43.97;;;21.50;;
21527;SDS011;10925;49.102;-0.370;2022-12-17T07:31:09;42.45;;;19.42;;
21527;SDS011;10925;49.102;-0.370;2022-12-17T07:33:55;40.45;;;19.33;;
21527;SDS011;10925;49.102;-0.370;2022-12-17T07:36:40;44.17;;;21.00;;
21527;SDS011;10925;49.102;-0.370;2022-12-17T07:39:25;42.03;;;19.45;;
21527;SDS011;10925;49.102;-0.370;2022-12-17T07:42:09;41.50;;;20.77;;
21527;SDS011;10925;49.102;-0.370;2022-12-17T07:44:54;43.17;;;18.70;;
21527;SDS011;10925;49.102;-0.370;2022-12-17T07:47:38;45.83;;;20.63;;
21527;SDS011;10925;49.102;-0.370;2022-12-17T07:50:23;44.75;;;19.60;;
21527;SDS011;10925;49.102;-0.370;2022-12-17T07:53:25;43.67;;;18.77;;
21527;SDS011;10925;49.102;-0.370;2022-12-17T07:56:10;53.08;;;21.98;;
21527;SDS011;10925;49.102;-0.370;2022-12-17T07:58:56;48.38;;;20.63;;
21527;SDS011;10925;49.102;-0.370;2022-12-17T08:01:41;42.63;;;20.73;;
21527;SDS011;10925;49.102;-0.370;2022-12-17T08:04:27;50.30;;;22.40;;
21527;SDS011;10925;49.102;-0.370;2022-12-17T08:07:12;58.42;;;24.25;;
21527;SDS011;10925;49.102;-0.370;2022-12-17T08:09:57;49.80;;;21.77;;
21527;SDS011;10925;49.102;-0.370;2022-12-17T08:12:52;44.08;;;19.95;;
21527;SDS011;10925;49.102;-0.370;2022-12-17T08:15:36;54.97;;;22.20;;
21527;SDS011;10925;49.102;-0.370;2022-12-17T08:18:21;47.03;;;22.08;;
21527;SDS011;10925;49.102;-0.370;2022-12-17T08:21:06;54.17;;;23.88;;
21527;SDS011;10925;49.102;-0.370;2022-12-17T08:23:51;48.45;;;21.23;;
21527;SDS011;10925;49.102;-0.370;2022-12-17T08:26:35;60.13;;;24.67;;
21527;SDS011;10925;49.102;-0.370;2022-12-17T08:29:21;52.80;;;22.67;;
21527;SDS011;10925;49.102;-0.370;2022-12-17T08:32:05;53.20;;;23.80;;
21527;SDS011;10925;49.102;-0.370;2022-12-17T08:34:50;59.78;;;25.27;;
21527;SDS011;10925;49.102;-0.370;2022-12-17T08:37:35;53.60;;;21.83;;
21527;SDS011;10925;49.102;-0.370;2022-12-17T08:40:20;56.25;;;24.48;;
21527;SDS011;10925;49.102;-0.370;2022-12-17T08:43:04;58.92;;;23.98;;
21527;SDS011;10925;49.102;-0.370;2022-12-17T08:45:50;60.53;;;22.50;;
21527;SDS011;10925;49.102;-0.370;2022-12-17T08:48:34;60.15;;;22.38;;
21527;SDS011;10925;49.102;-0.370;2022-12-17T08:51:20;73.70;;;25.85;;
21527;SDS011;10925;49.102;-0.370;2022-12-17T08:54:05;60.63;;;24.38;;
21527;SDS011;10925;49.102;-0.370;2022-12-17T08:56:51;68.75;;;25.13;;
21527;SDS011;10925;49.102;-0.370;2022-12-17T08:59:36;73.50;;;27.52;;
21527;SDS011;10925;49.102;-0.370;2022-12-17T09:02:21;63.13;;;24.58;;
21527;SDS011;10925;49.102;-0.370;2022-12-17T09:05:07;65.10;;;24.67;;
21527;SDS011;10925;49.102;-0.370;2022-12-17T09:13:20;81.95;;;24.40;;
21527;SDS011;10925;49.102;-0.370;2022-12-17T09:16:04;65.70;;;22.27;;
21527;SDS011;10925;49.102;-0.370;2022-12-17T09:18:49;68.47;;;23.17;;
21527;SDS011;10925;49.102;-0.370;2022-12-17T09:21:35;66.93;;;21.38;;
21527;SDS011;10925;49.102;-0.370;2022-12-17T09:24:20;85.50;;;23.30;;
21527;SDS011;10925;49.102;-0.370;2022-12-17T09:27:04;71.85;;;22.42;;
21527;SDS011;10925;49.102;-0.370;2022-12-17T09:29:50;71.97;;;22.02;;
21527;SDS011;10925;49.102;-0.370;2022-12-17T09:32:37;66.38;;;21.20;;
21527;SDS011;10925;49.102;-0.370;2022-12-17T09:35:21;52.25;;;18.90;;
21527;SDS011;10925;49.102;-0.370;2022-12-17T09:38:05;72.07;;;23.75;;
21527;SDS011;10925;49.102;-0.370;2022-12-17T09:40:49;77.03;;;21.90;;
21527;SDS011;10925;49.102;-0.370;2022-12-17T09:43:39;68.63;;;22.27;;
21527;SDS011;10925;49.102;-0.370;2022-12-17T09:46:55;54.75;;;18.52;;
21527;SDS011;10925;49.102;-0.370;2022-12-17T09:49:47;73.15;;;21.25;;
21527;SDS011;10925;49.102;-0.370;2022-12-17T09:52:33;73.95;;;20.48;;
21527;SDS011;10925;49.102;-0.370;2022-12-17T09:55:40;75.30;;;22.55;;
21527;SDS011;10925;49.102;-0.370;2022-12-17T09:58:28;69.45;;;22.15;;
21527;SDS011;10925;49.102;-0.370;2022-12-17T10:01:17;96.38;;;26.00;;
21527;SDS011;10925;49.102;-0.370;2022-12-17T10:04:03;68.45;;;23.33;;
21527;SDS011;10925;49.102;-0.370;2022-12-17T10:06:48;76.10;;;25.38;;
21527;SDS011;10925;49.102;-0.370;2022-12-17T10:09:32;79.70;;;25.92;;
21527;SDS011;10925;49.102;-0.370;2022-12-17T10:12:18;61.80;;;22.50;;
21527;SDS011;10925;49.102;-0.370;2022-12-17T10:15:06;68.55;;;22.25;;
21527;SDS011;10925;49.102;-0.370;2022-12-17T10:17:51;61.30;;;21.63;;
21527;SDS011;10925;49.102;-0.370;2022-12-17T10:21:27;73.38;;;24.67;;
21527;SDS011;10925;49.102;-0.370;2022-12-17T10:24:02;63.25;;;21.45;;
21527;SDS011;10925;49.102;-0.370;2022-12-17T10:26:48;70.13;;;23.90;;
21527;SDS011;10925;49.102;-0.370;2022-12-17T10:29:34;74.07;;;26.27;;
21527;SDS011;10925;49.102;-0.370;2022-12-17T10:32:19;64.47;;;23.70;;
21527;SDS011;10925;49.102;-0.370;2022-12-17T10:35:15;81.65;;;27.60;;
21527;SDS011;10925;49.102;-0.370;2022-12-17T10:38:01;85.70;;;28.70;;
21527;SDS011;10925;49.102;-0.370;2022-12-17T10:40:53;69.68;;;25.45;;
21527;SDS011;10925;49.102;-0.370;2022-12-17T10:43:37;79.70;;;29.48;;
21527;SDS011;10925;49.102;-0.370;2022-12-17T10:46:28;77.65;;;30.80;;
21527;SDS011;10925;49.102;-0.370;2022-12-17T10:52:01;64.60;;;27.88;;
21527;SDS011;10925;49.102;-0.370;2022-12-17T10:55:01;73.18;;;29.98;;
21527;SDS011;10925;49.102;-0.370;2022-12-17T10:57:48;61.20;;;22.40;;
21527;SDS011;10925;49.102;-0.370;2022-12-17T11:00:38;56.50;;;22.30;;
21527;SDS011;10925;49.102;-0.370;2022-12-17T11:06:10;54.72;;;20.95;;
21527;SDS011;10925;49.102;-0.370;2022-12-17T11:08:55;46.97;;;18.75;;
21527;SDS011;10925;49.102;-0.370;2022-12-17T11:11:41;53.93;;;19.73;;
21527;SDS011;10925;49.102;-0.370;2022-12-17T11:14:25;50.42;;;20.65;;
21527;SDS011;10925;49.102;-0.370;2022-12-17T11:17:13;45.50;;;19.10;;
21527;SDS011;10925;49.102;-0.370;2022-12-17T11:20:01;52.28;;;19.42;;
21527;SDS011;10925;49.102;-0.370;2022-12-17T11:22:53;56.13;;;22.88;;
21527;SDS011;10925;49.102;-0.370;2022-12-17T11:25:41;50.35;;;20.52;;
21527;SDS011;10925;49.102;-0.370;2022-12-17T11:28:28;49.05;;;19.85;;
21527;SDS011;10925;49.102;-0.370;2022-12-17T11:37:05;53.00;;;21.95;;
21527;SDS011;10925;49.102;-0.370;2022-12-17T11:42:58;45.58;;;19.92;;
21527;SDS011;10925;49.102;-0.370;2022-12-17T11:45:52;48.90;;;21.58;;
21527;SDS011;10925;49.102;-0.370;2022-12-17T11:48:47;45.33;;;18.15;;
21527;SDS011;10925;49.102;-0.370;2022-12-17T11:57:20;51.50;;;23.13;;
21527;SDS011;10925;49.102;-0.370;2022-12-17T12:00:16;52.65;;;23.00;;
21527;SDS011;10925;49.102;-0.370;2022-12-17T12:05:54;43.67;;;19.00;;
21527;SDS011;10925;49.102;-0.370;2022-12-17T12:08:57;41.28;;;18.33;;
21527;SDS011;10925;49.102;-0.370;2022-12-17T12:14:46;62.83;;;28.33;;
21527;SDS011;10925;49.102;-0.370;2022-12-17T12:23:10;54.10;;;25.73;;
21527;SDS011;10925;49.102;-0.370;2022-12-17T12:28:48;45.10;;;20.02;;
21527;SDS011;10925;49.102;-0.370;2022-12-17T12:31:39;48.53;;;21.00;;
21527;SDS011;10925;49.102;-0.370;2022-12-17T12:34:29;49.50;;;19.83;;
21527;SDS011;10925;49.102;-0.370;2022-12-17T12:37:14;39.83;;;18.60;;
21527;SDS011;10925;49.102;-0.370;2022-12-17T12:40:04;44.80;;;19.52;;
21527;SDS011;10925;49.102;-0.370;2022-12-17T12:45:44;39.90;;;18.17;;
21527;SDS011;10925;49.102;-0.370;2022-12-17T12:48:37;45.78;;;20.17;;
21527;SDS011;10925;49.102;-0.370;2022-12-17T12:51:26;77.68;;;34.97;;
21527;SDS011;10925;49.102;-0.370;2022-12-17T12:54:23;53.63;;;24.75;;
21527;SDS011;10925;49.102;-0.370;2022-12-17T12:57:29;41.75;;;20.83;;
21527;SDS011;10925;49.102;-0.370;2022-12-17T13:06:09;54.33;;;29.80;;
21527;SDS011;10925;49.102;-0.370;2022-12-17T13:08:34;45.55;;;22.55;;
21527;SDS011;10925;49.102;-0.370;2022-12-17T13:11:24;50.17;;;24.20;;
21527;SDS011;10925;49.102;-0.370;2022-12-17T13:13:52;51.15;;;26.58;;
21527;SDS011;10925;49.102;-0.370;2022-12-17T13:16:26;48.55;;;22.83;;
21527;SDS011;10925;49.102;-0.370;2022-12-17T13:24:24;46.50;;;20.33;;
21527;SDS011;10925;49.102;-0.370;2022-12-17T13:26:51;44.72;;;21.15;;
21527;SDS011;10925;49.102;-0.370;2022-12-17T13:31:57;44.35;;;22.20;;
21527;SDS011;10925;49.102;-0.370;2022-12-17T13:42:02;44.60;;;21.48;;
21527;SDS011;10925;49.102;-0.370;2022-12-17T13:44:43;50.92;;;21.92;;
21527;SDS011;10925;49.102;-0.370;2022-12-17T13:47:26;44.08;;;20.60;;
21527;SDS011;10925;49.102;-0.370;2022-12-17T13:49:53;44.80;;;19.50;;
21527;SDS011;10925;49.102;-0.370;2022-12-17T13:53:07;34.63;;;17.33;;
21527;SDS011;10925;49.102;-0.370;2022-12-17T13:55:33;45.20;;;21.47;;
21527;SDS011;10925;49.102;-0.370;2022-12-17T13:58:00;38.33;;;18.35;;
21527;SDS011;10925;49.102;-0.370;2022-12-17T14:00:28;36.05;;;18.40;;
21527;SDS011;10925;49.102;-0.370;2022-12-17T14:02:55;37.80;;;17.70;;
21527;SDS011;10925;49.102;-0.370;2022-12-17T14:05:24;37.50;;;18.25;;
21527;SDS011;10925;49.102;-0.370;2022-12-17T14:07:51;37.95;;;18.38;;
21527;SDS011;10925;49.102;-0.370;2022-12-17T14:10:18;39.38;;;18.25;;
21527;SDS011;10925;49.102;-0.370;2022-12-17T14:12:44;36.08;;;18.17;;
21527;SDS011;10925;49.102;-0.370;2022-12-17T14:15:18;38.30;;;19.67;;
21527;SDS011;10925;49.102;-0.370;2022-12-17T14:17:47;35.92;;;19.20;;
21527;SDS011;10925;49.102;-0.370;2022-12-17T14:20:16;40.45;;;20.95;;
21527;SDS011;10925;49.102;-0.370;2022-12-17T14:22:51;56.72;;;30.95;;
21527;SDS011;10925;49.102;-0.370;2022-12-17T14:25:23;49.15;;;26.25;;
21527;SDS011;10925;49.102;-0.370;2022-12-17T14:30:21;50.65;;;26.73;;
21527;SDS011;10925;49.102;-0.370;2022-12-17T14:32:48;48.17;;;25.98;;
21527;SDS011;10925;49.102;-0.370;2022-12-17T14:35:31;44.63;;;23.42;;
21527;SDS011;10925;49.102;-0.370;2022-12-17T14:37:59;47.97;;;24.65;;
21527;SDS011;10925;49.102;-0.370;2022-12-17T14:40:26;46.72;;;23.50;;
21527;SDS011;10925;49.102;-0.370;2022-12-17T14:42:56;43.50;;;20.75;;
21527;SDS011;10925;49.102;-0.370;2022-12-17T14:45:24;37.85;;;19.58;;
21527;SDS011;10925;49.102;-0.370;2022-12-17T14:47:57;46.80;;;23.63;;
21527;SDS011;10925;49.102;-0.370;2022-12-17T14:50:32;38.28;;;20.38;;
21527;SDS011;10925;49.102;-0.370;2022-12-17T14:53:00;42.55;;;22.20;;
21527;SDS011;10925;49.102;-0.370;2022-12-17T14:58:05;40.03;;;20.77;;
21527;SDS011;10925;49.102;-0.370;2022-12-17T15:00:33;40.80;;;19.77;;
21527;SDS011;10925;49.102;-0.370;2022-12-17T15:03:03;44.13;;;21.25;;
21527;SDS011;10925;49.102;-0.370;2022-12-17T15:05:30;46.55;;;23.48;;
21527;SDS011;10925;49.102;-0.370;2022-12-17T15:07:58;41.55;;;20.33;;
21527;SDS011;10925;49.102;-0.370;2022-12-17T15:10:25;37.58;;;18.88;;
21527;SDS011;10925;49.102;-0.370;2022-12-17T15:12:51;41.00;;;19.05;;
21527;SDS011;10925;49.102;-0.370;2022-12-17T15:15:17;42.40;;;19.80;;
21527;SDS011;10925;49.102;-0.370;2022-12-17T15:17:46;41.88;;;20.05;;
21527;SDS011;10925;49.102;-0.370;2022-12-17T15:20:16;43.00;;;19.05;;
21527;SDS011;10925;49.102;-0.370;2022-12-17T15:22:43;41.10;;;19.55;;
21527;SDS011;10925;49.102;-0.370;2022-12-17T15:25:14;42.58;;;19.95;;
21527;SDS011;10925;49.102;-0.370;2022-12-17T15:27:42;40.13;;;18.83;;
21527;SDS011;10925;49.102;-0.370;2022-12-17T15:30:12;38.45;;;19.15;;
21527;SDS011;10925;49.102;-0.370;2022-12-17T15:32:37;40.58;;;20.20;;
21527;SDS011;10925;49.102;-0.370;2022-12-17T15:35:04;41.08;;;19.55;;
21527;SDS011;10925;49.102;-0.370;2022-12-17T15:37:31;38.97;;;19.38;;
21527;SDS011;10925;49.102;-0.370;2022-12-17T15:39:58;38.67;;;18.60;;
21527;SDS011;10925;49.102;-0.370;2022-12-17T15:42:23;35.22;;;18.15;;
21527;SDS011;10925;49.102;-0.370;2022-12-17T15:45:13;41.95;;;19.77;;
21527;SDS011;10925;49.102;-0.370;2022-12-17T15:47:40;38.42;;;18.65;;
21527;SDS011;10925;49.102;-0.370;2022-12-17T15:50:08;38.70;;;19.85;;
21527;SDS011;10925;49.102;-0.370;2022-12-17T15:52:34;44.83;;;22.00;;
21527;SDS011;10925;49.102;-0.370;2022-12-17T15:54:59;44.83;;;22.40;;
21527;SDS011;10925;49.102;-0.370;2022-12-17T15:57:26;41.70;;;21.08;;
21527;SDS011;10925;49.102;-0.370;2022-12-17T15:59:52;52.97;;;24.85;;
21527;SDS011;10925;49.102;-0.370;2022-12-17T16:02:18;49.40;;;25.90;;
21527;SDS011;10925;49.102;-0.370;2022-12-17T16:04:43;61.33;;;30.58;;
21527;SDS011;10925;49.102;-0.370;2022-12-17T16:07:09;52.95;;;25.40;;
21527;SDS011;10925;49.102;-0.370;2022-12-17T16:09:34;57.15;;;24.73;;
21527;SDS011;10925;49.102;-0.370;2022-12-17T16:12:00;45.53;;;20.75;;
21527;SDS011;10925;49.102;-0.370;2022-12-17T16:14:27;48.67;;;22.25;;
21527;SDS011;10925;49.102;-0.370;2022-12-17T16:16:53;47.78;;;22.13;;
21527;SDS011;10925;49.102;-0.370;2022-12-17T16:19:20;43.80;;;22.88;;
21527;SDS011;10925;49.102;-0.370;2022-12-17T16:21:47;59.15;;;25.83;;
21527;SDS011;10925;49.102;-0.370;2022-12-17T16:24:14;54.78;;;25.45;;
21527;SDS011;10925;49.102;-0.370;2022-12-17T16:26:41;63.83;;;27.13;;
21527;SDS011;10925;49.102;-0.370;2022-12-17T16:29:07;63.75;;;27.55;;
21527;SDS011;10925;49.102;-0.370;2022-12-17T16:31:34;54.10;;;26.88;;
21527;SDS011;10925;49.102;-0.370;2022-12-17T16:33:59;50.30;;;24.35;;
21527;SDS011;10925;49.102;-0.370;2022-12-17T16:36:25;61.53;;;26.67;;
21527;SDS011;10925;49.102;-0.370;2022-12-17T16:38:51;56.05;;;26.85;;
21527;SDS011;10925;49.102;-0.370;2022-12-17T16:41:18;56.50;;;25.73;;
21527;SDS011;10925;49.102;-0.370;2022-12-17T16:43:43;50.22;;;25.13;;
21527;SDS011;10925;49.102;-0.370;2022-12-17T16:46:21;50.05;;;23.05;;
21527;SDS011;10925;49.102;-0.370;2022-12-17T16:48:47;47.38;;;23.40;;
21527;SDS011;10925;49.102;-0.370;2022-12-17T16:51:16;54.88;;;23.92;;
21527;SDS011;10925;49.102;-0.370;2022-12-17T16:53:53;54.10;;;23.10;;